Time;durP1;ratioP1;P1;durP2;ratioP2;P2;SDS_P1;SDS_P2;PMS_P1;PMS_P2;Temp;Humidity;BMP_temperature;BMP_pressure;BME280_temperature;BME280_humidity;BME280_pressure;Samples;Min_cycle;Max_cycle;Signal;HPM_P1;HPM_P2
2022/06/07 00:00:36;;;;;;;3.47;1.80;;;17.10;99.90;;;;;;5065801;28;20563;-68
2022/06/07 00:03:02;;;;;;;2.22;1.80;;;17.10;99.90;;;;;;5073052;28;20177;-68
2022/06/07 00:05:28;;;;;;;2.22;1.70;;;17.00;99.90;;;;;;5071506;28;20578;-68
2022/06/07 00:07:54;;;;;;;2.25;2.05;;;17.00;99.90;;;;;;5071013;28;20263;-68
2022/06/07 00:10:21;;;;;;;1.63;1.52;;;16.90;99.90;;;;;;5072260;28;20654;-68
2022/06/07 00:12:47;;;;;;;2.58;1.80;;;16.90;99.90;;;;;;5072957;28;20169;-68
2022/06/07 00:15:13;;;;;;;3.65;1.80;;;16.90;99.90;;;;;;5073259;28;20214;-69
2022/06/07 00:17:38;;;;;;;2.85;1.60;;;16.90;99.90;;;;;;5072197;28;20636;-69
2022/06/07 00:20:05;;;;;;;3.15;1.67;;;16.80;99.90;;;;;;5072443;28;20228;-68
2022/06/07 00:22:32;;;;;;;1.73;1.63;;;16.80;99.90;;;;;;5072757;28;20313;-69
2022/06/07 00:24:57;;;;;;;4.18;1.73;;;16.80;99.90;;;;;;5072690;28;20272;-68
2022/06/07 00:27:24;;;;;;;1.48;1.40;;;16.80;99.90;;;;;;5072623;28;20276;-69
2022/06/07 00:29:49;;;;;;;3.10;1.67;;;16.80;99.90;;;;;;5072642;28;20189;-69
2022/06/07 00:32:18;;;;;;;1.73;1.63;;;16.80;99.90;;;;;;5072819;28;20180;-69
2022/06/07 00:34:43;;;;;;;1.40;1.30;;;16.80;99.90;;;;;;5072667;28;20185;-69
2022/06/07 00:37:09;;;;;;;1.80;1.70;;;16.80;99.90;;;;;;5072555;28;20184;-69
2022/06/07 00:39:34;;;;;;;1.75;1.50;;;16.80;99.90;;;;;;5072403;28;20542;-69
2022/06/07 00:42:00;;;;;;;2.58;1.50;;;16.80;99.90;;;;;;5072347;28;20173;-68
2022/06/07 00:44:25;;;;;;;3.67;1.60;;;16.80;99.90;;;;;;5072995;28;20184;-69
2022/06/07 00:46:54;;;;;;;2.05;1.70;;;16.80;99.90;;;;;;5072237;28;20185;-68
2022/06/07 00:49:22;;;;;;;2.15;1.73;;;16.80;99.90;;;;;;5072031;28;20271;-69
2022/06/07 00:51:48;;;;;;;2.03;1.77;;;16.70;99.90;;;;;;5072267;28;20189;-69
2022/06/07 00:54:20;;;;;;;1.92;1.45;;;16.70;99.90;;;;;;5072030;28;20555;-69
2022/06/07 00:56:46;;;;;;;2.03;1.50;;;16.60;99.90;;;;;;5072004;28;20231;-69
2022/06/07 00:59:11;;;;;;;2.75;1.77;;;16.60;99.90;;;;;;5072296;28;20180;-69
2022/06/07 01:01:37;;;;;;;3.00;1.88;;;16.60;99.90;;;;;;5072156;28;20192;-69
2022/06/07 01:04:03;;;;;;;2.55;1.50;;;16.50;99.90;;;;;;5071896;28;20644;-69
2022/06/07 01:11:56;;;;;;;2.28;1.42;;;16.50;99.90;;;;;;5070558;28;20184;-69
2022/06/07 01:14:22;;;;;;;1.80;1.45;;;16.40;99.90;;;;;;5072036;28;20172;-68
2022/06/07 01:16:47;;;;;;;3.60;1.48;;;16.40;99.90;;;;;;5071911;28;20220;-69
2022/06/07 01:19:13;;;;;;;1.50;1.27;;;16.40;99.90;;;;;;5071303;28;20771;-68
2022/06/07 01:21:41;;;;;;;1.85;1.58;;;16.40;99.90;;;;;;5071794;28;20184;-68
2022/06/07 01:24:07;;;;;;;1.67;1.58;;;16.40;99.90;;;;;;5071312;28;20188;-68
2022/06/07 01:26:33;;;;;;;2.65;1.30;;;16.30;99.90;;;;;;5072081;28;20177;-68
2022/06/07 01:28:58;;;;;;;1.40;1.10;;;16.30;99.90;;;;;;5071468;28;20192;-69
2022/06/07 01:31:24;;;;;;;1.65;1.40;;;16.30;99.90;;;;;;5071694;28;20226;-69
2022/06/07 01:33:50;;;;;;;3.40;1.30;;;16.30;99.90;;;;;;5071824;28;20207;-69
2022/06/07 01:36:17;;;;;;;1.63;1.27;;;16.20;99.90;;;;;;5071530;28;20738;-69
2022/06/07 01:38:45;;;;;;;2.40;1.40;;;16.20;99.90;;;;;;5069970;28;20238;-69
2022/06/07 01:43:59;;;;;;;2.45;1.50;;;16.10;99.90;;;;;;5071874;28;20650;-68
2022/06/07 01:46:24;;;;;;;1.38;1.25;;;16.00;99.90;;;;;;5071351;28;20177;-69
2022/06/07 01:48:50;;;;;;;1.58;1.23;;;16.00;99.90;;;;;;5071401;28;20632;-69
2022/06/07 01:51:16;;;;;;;4.72;1.60;;;16.00;99.90;;;;;;5071161;28;20188;-69
2022/06/07 01:53:42;;;;;;;2.40;1.33;;;15.90;99.90;;;;;;5071303;28;20181;-68
2022/06/07 01:56:11;;;;;;;2.63;1.23;;;15.90;99.90;;;;;;5070668;28;20303;-68
2022/06/07 01:58:38;;;;;;;1.40;1.30;;;15.90;99.90;;;;;;5071108;28;20204;-68
2022/06/07 02:01:05;;;;;;;3.13;1.38;;;15.90;99.90;;;;;;5063402;28;20191;-68
2022/06/07 02:03:31;;;;;;;1.90;1.17;;;15.90;99.90;;;;;;5071511;28;20256;-69
2022/06/07 02:06:00;;;;;;;1.45;1.30;;;15.90;99.90;;;;;;5070794;28;20185;-68
2022/06/07 02:08:26;;;;;;;2.90;1.40;;;15.80;99.90;;;;;;5071537;28;20185;-68
2022/06/07 02:10:53;;;;;;;1.85;1.20;;;15.80;99.90;;;;;;5070903;28;20180;-68
2022/06/07 02:13:19;;;;;;;1.33;1.23;;;15.80;99.90;;;;;;5070906;28;20181;-68
2022/06/07 02:15:46;;;;;;;2.17;1.13;;;15.80;99.90;;;;;;5070098;28;20216;-69
2022/06/07 02:18:12;;;;;;;1.30;1.20;;;15.80;99.90;;;;;;5065937;28;20266;-69
2022/06/07 02:20:38;;;;;;;1.67;1.17;;;15.70;99.90;;;;;;5069564;28;20214;-69
2022/06/07 02:23:04;;;;;;;1.45;1.35;;;15.70;99.90;;;;;;5072137;28;20322;-68
2022/06/07 02:25:34;;;;;;;2.33;1.35;;;15.70;99.90;;;;;;5074993;28;20219;-68
2022/06/07 02:27:59;;;;;;;2.05;1.40;;;15.70;99.90;;;;;;5075308;28;20172;-69
2022/06/07 02:30:25;;;;;;;1.00;1.00;;;15.70;99.90;;;;;;5073155;28;20264;-69
2022/06/07 02:32:50;;;;;;;6.47;1.30;;;15.70;99.90;;;;;;5075019;28;20173;-69
2022/06/07 02:35:16;;;;;;;1.27;1.20;;;15.70;99.90;;;;;;5074683;28;20594;-69
2022/06/07 02:37:41;;;;;;;1.90;1.10;;;15.70;99.90;;;;;;5074870;28;20188;-68
2022/06/07 02:40:07;;;;;;;1.20;1.17;;;15.70;99.90;;;;;;5074639;28;20666;-68
2022/06/07 02:42:33;;;;;;;1.30;1.20;;;15.70;99.90;;;;;;5074390;28;20192;-69
2022/06/07 02:44:59;;;;;;;1.42;1.30;;;15.60;99.90;;;;;;5074733;28;20173;-68
2022/06/07 02:47:25;;;;;;;3.13;1.35;;;15.70;99.90;;;;;;5074423;28;20222;-69
2022/06/07 02:49:52;;;;;;;1.33;1.20;;;15.60;99.90;;;;;;5074573;28;20165;-69
2022/06/07 02:52:18;;;;;;;2.90;1.20;;;15.60;99.90;;;;;;5074634;28;20510;-69
2022/06/07 02:54:43;;;;;;;1.20;1.10;;;15.60;99.90;;;;;;5074424;28;20184;-68
2022/06/07 02:57:09;;;;;;;1.00;1.00;;;15.60;99.90;;;;;;5074073;28;20556;-69
2022/06/07 02:59:34;;;;;;;2.05;1.10;;;15.70;99.90;;;;;;5074791;28;20674;-68
2022/06/07 03:02:00;;;;;;;1.05;0.93;;;15.70;99.90;;;;;;5074175;28;20186;-69
2022/06/07 03:04:26;;;;;;;1.45;0.90;;;15.70;99.90;;;;;;5074556;28;20537;-69
2022/06/07 03:06:52;;;;;;;2.75;1.00;;;15.80;99.90;;;;;;5074218;28;20191;-69
2022/06/07 03:09:18;;;;;;;1.25;1.13;;;15.90;99.90;;;;;;5074154;28;20176;-68
2022/06/07 03:11:43;;;;;;;1.10;0.95;;;15.90;99.90;;;;;;5073861;28;20216;-69
2022/06/07 03:14:10;;;;;;;1.08;0.93;;;15.90;99.90;;;;;;5074272;28;20173;-68
2022/06/07 03:16:36;;;;;;;0.95;0.95;;;16.00;99.90;;;;;;5067443;28;20270;-69
2022/06/07 03:19:02;;;;;;;2.03;0.90;;;16.00;99.90;;;;;;5054325;28;20217;-68
2022/06/07 03:21:28;;;;;;;2.35;1.15;;;16.00;99.90;;;;;;5069524;28;20187;-68
2022/06/07 03:23:54;;;;;;;1.50;1.10;;;16.00;99.90;;;;;;5074073;28;20185;-68
2022/06/07 03:26:19;;;;;;;2.00;1.50;;;16.10;99.90;;;;;;5073814;28;20242;-70
2022/06/07 03:28:45;;;;;;;1.70;1.38;;;16.10;99.90;;;;;;5074158;28;20180;-68
2022/06/07 03:31:13;;;;;;;1.83;1.13;;;16.20;99.90;;;;;;5073704;28;20188;-68
2022/06/07 03:33:44;;;;;;;1.85;1.13;;;16.20;99.90;;;;;;5074053;28;20722;-68
2022/06/07 03:36:16;;;;;;;2.17;1.02;;;16.20;99.90;;;;;;5072340;28;20209;-69
2022/06/07 03:38:42;;;;;;;2.08;0.88;;;16.20;99.90;;;;;;5073442;28;20188;-69
2022/06/07 03:41:08;;;;;;;1.65;1.02;;;16.20;99.90;;;;;;5073489;28;20173;-68
2022/06/07 03:43:35;;;;;;;1.75;0.80;;;16.20;99.90;;;;;;5073905;28;20188;-68
2022/06/07 03:46:15;;;;;;;0.70;0.70;;;16.20;99.90;;;;;;5073563;28;20184;-69
2022/06/07 03:48:42;;;;;;;1.02;0.80;;;16.20;99.90;;;;;;5073849;28;20233;-68
2022/06/07 03:51:09;;;;;;;0.93;0.93;;;16.20;99.90;;;;;;5073169;28;20187;-69
2022/06/07 03:53:35;;;;;;;0.85;0.85;;;16.20;99.90;;;;;;5058246;28;20315;-68
2022/06/07 03:56:01;;;;;;;0.77;0.77;;;16.10;99.90;;;;;;5072725;28;20679;-67
2022/06/07 03:58:27;;;;;;;1.30;0.90;;;16.10;99.90;;;;;;5073869;28;20177;-68
2022/06/07 04:00:56;;;;;;;1.63;0.88;;;16.20;99.90;;;;;;5073537;28;20530;-67
2022/06/07 04:03:22;;;;;;;0.90;0.90;;;16.20;99.90;;;;;;5067387;28;20255;-68
2022/06/07 04:05:48;;;;;;;0.65;0.65;;;16.20;99.90;;;;;;5072882;28;20248;-69
2022/06/07 04:08:14;;;;;;;1.02;0.93;;;16.20;99.90;;;;;;5071606;28;20292;-66
2022/06/07 04:10:58;;;;;;;0.73;0.73;;;16.20;99.90;;;;;;5073383;28;20722;-66
2022/06/07 04:13:28;;;;;;;3.10;1.10;;;16.20;99.90;;;;;;5071937;28;20259;-67
2022/06/07 04:15:54;;;;;;;1.00;1.00;;;16.10;99.90;;;;;;5071838;28;20261;-70
2022/06/07 04:18:20;;;;;;;1.42;1.20;;;16.10;99.90;;;;;;5072189;28;20683;-69
2022/06/07 04:20:47;;;;;;;1.02;1.02;;;16.10;99.90;;;;;;5072923;28;20667;-69
2022/06/07 04:23:16;;;;;;;1.27;0.90;;;16.10;99.90;;;;;;5072821;28;20180;-69
2022/06/07 04:25:41;;;;;;;2.03;1.05;;;16.10;99.90;;;;;;5072720;28;20203;-68
2022/06/07 04:28:08;;;;;;;2.70;1.08;;;16.10;99.90;;;;;;5072560;28;20184;-68
2022/06/07 04:30:33;;;;;;;1.58;1.35;;;16.10;99.90;;;;;;5072430;28;20177;-68
2022/06/07 04:32:59;;;;;;;2.40;1.13;;;16.10;99.90;;;;;;5073003;28;20508;-69
2022/06/07 04:35:26;;;;;;;1.83;1.08;;;16.10;99.90;;;;;;5072692;28;20251;-68
2022/06/07 04:37:53;;;;;;;2.10;1.20;;;16.20;99.90;;;;;;5072860;28;20769;-67
2022/06/07 04:40:19;;;;;;;1.45;1.10;;;16.30;99.90;;;;;;5072840;28;20543;-67
2022/06/07 04:42:45;;;;;;;1.00;1.00;;;16.40;99.90;;;;;;5072536;28;20185;-67
2022/06/07 04:45:14;;;;;;;1.20;1.10;;;16.50;99.90;;;;;;5072223;28;20639;-66
2022/06/07 04:47:40;;;;;;;1.38;1.27;;;16.70;99.90;;;;;;5072074;28;21038;-67
2022/06/07 04:50:07;;;;;;;2.33;1.95;;;16.90;99.90;;;;;;5071393;28;20181;-66
2022/06/07 04:52:33;;;;;;;1.40;1.13;;;17.20;99.90;;;;;;5072620;28;20177;-66
2022/06/07 04:54:58;;;;;;;1.80;0.90;;;17.60;99.90;;;;;;5072402;28;20184;-66
2022/06/07 04:57:24;;;;;;;1.77;1.17;;;17.90;99.90;;;;;;5066450;28;20189;-67
2022/06/07 04:59:49;;;;;;;1.50;0.77;;;18.10;99.90;;;;;;5057436;28;20191;-68
2022/06/07 05:02:15;;;;;;;2.65;1.30;;;18.30;99.90;;;;;;5070051;28;20658;-65
2022/06/07 05:04:41;;;;;;;2.95;1.17;;;18.60;99.90;;;;;;5067805;28;20222;-67
2022/06/07 05:07:06;;;;;;;1.17;0.98;;;18.60;99.90;;;;;;5072339;28;20260;-67
2022/06/07 05:09:32;;;;;;;3.13;1.30;;;19.00;99.90;;;;;;5072041;28;20200;-66
2022/06/07 05:11:58;;;;;;;3.83;2.15;;;19.60;99.90;;;;;;5072192;28;20177;-67
2022/06/07 05:14:24;;;;;;;1.52;1.30;;;20.10;99.90;;;;;;5072094;28;20179;-67
2022/06/07 05:16:51;;;;;;;1.35;0.95;;;20.50;99.90;;;;;;5072104;28;20216;-67
2022/06/07 05:19:17;;;;;;;1.08;1.00;;;20.40;99.90;;;;;;5066886;28;20224;-66
2022/06/07 05:21:43;;;;;;;1.10;1.00;;;20.10;99.90;;;;;;5072176;28;20270;-67
2022/06/07 05:24:10;;;;;;;1.58;0.80;;;19.60;99.90;;;;;;5071630;28;20181;-68
2022/06/07 05:26:51;;;;;;;1.83;0.88;;;19.30;99.90;;;;;;5071426;28;20230;-68
2022/06/07 05:29:20;;;;;;;1.05;0.80;;;18.90;99.90;;;;;;5071258;28;20176;-67
2022/06/07 05:31:45;;;;;;;1.05;0.77;;;18.70;99.90;;;;;;5072300;28;20176;-68
2022/06/07 05:34:11;;;;;;;1.13;0.73;;;18.60;99.90;;;;;;5072354;28;20177;-68
2022/06/07 05:36:36;;;;;;;1.17;1.08;;;18.70;99.90;;;;;;5072076;28;20224;-68
2022/06/07 05:39:03;;;;;;;1.35;0.80;;;19.10;99.90;;;;;;5072016;28;20208;-67
2022/06/07 05:41:29;;;;;;;0.98;0.88;;;19.50;99.90;;;;;;5072276;28;20181;-68
2022/06/07 05:43:55;;;;;;;2.35;1.00;;;20.40;99.90;;;;;;5072236;28;20640;-67
2022/06/07 05:46:21;;;;;;;1.38;1.10;;;21.30;99.90;;;;;;5072024;28;20219;-68
2022/06/07 05:48:47;;;;;;;0.70;0.70;;;21.90;99.50;;;;;;5071743;28;20195;-68
2022/06/07 05:51:13;;;;;;;1.08;0.63;;;22.40;98.10;;;;;;5072074;28;20204;-68
2022/06/07 05:53:38;;;;;;;1.35;0.70;;;22.70;96.80;;;;;;5071554;28;20177;-68
2022/06/07 05:56:09;;;;;;;1.92;0.85;;;22.90;96.30;;;;;;5066974;28;20289;-68
2022/06/07 05:58:35;;;;;;;0.68;0.68;;;23.10;94.90;;;;;;5072615;28;20266;-68
2022/06/07 06:01:01;;;;;;;0.90;0.90;;;22.60;95.00;;;;;;5075906;28;20212;-67
2022/06/07 06:03:26;;;;;;;0.70;0.60;;;22.30;95.80;;;;;;5076169;28;20225;-68
2022/06/07 06:05:52;;;;;;;0.82;0.70;;;22.10;95.70;;;;;;5076093;28;20187;-67
2022/06/07 06:11:15;;;;;;;4.40;1.48;;;22.70;95.90;;;;;;5075587;28;20666;-68
2022/06/07 06:13:41;;;;;;;1.27;0.82;;;23.20;95.90;;;;;;5075898;28;20181;-68
2022/06/07 06:16:10;;;;;;;1.35;0.85;;;23.90;94.20;;;;;;5072967;28;20212;-68
2022/06/07 06:18:37;;;;;;;2.53;0.82;;;23.70;93.40;;;;;;5068124;28;20216;-67
2022/06/07 06:21:02;;;;;;;2.10;0.60;;;23.60;93.60;;;;;;5075596;28;20185;-68
2022/06/07 06:23:28;;;;;;;1.08;0.77;;;23.50;93.80;;;;;;5075421;28;20175;-68
2022/06/07 06:25:54;;;;;;;0.60;0.60;;;23.50;94.00;;;;;;5075657;28;20214;-67
2022/06/07 06:28:19;;;;;;;3.45;1.70;;;23.40;93.70;;;;;;5075429;28;20331;-67
2022/06/07 06:30:45;;;;;;;4.70;0.80;;;23.80;93.00;;;;;;5075731;28;20218;-68
2022/06/07 06:33:14;;;;;;;0.55;0.55;;;23.90;92.80;;;;;;5075129;28;20193;-68
2022/06/07 06:35:47;;;;;;;1.40;0.75;;;24.20;92.30;;;;;;5075508;28;20731;-68
2022/06/07 06:38:13;;;;;;;0.95;0.80;;;24.50;92.20;;;;;;5075411;28;20188;-68
2022/06/07 06:40:39;;;;;;;0.68;0.68;;;25.10;91.70;;;;;;5075469;28;20256;-67
2022/06/07 06:43:05;;;;;;;1.20;0.93;;;25.30;90.80;;;;;;5069555;28;20193;-67
2022/06/07 06:45:30;;;;;;;1.00;0.65;;;25.50;89.80;;;;;;5055375;28;20260;-67
2022/06/07 06:47:56;;;;;;;1.75;0.73;;;25.40;88.70;;;;;;5073062;28;20180;-67
2022/06/07 06:50:21;;;;;;;0.95;0.80;;;25.10;89.20;;;;;;5075172;28;20541;-67
2022/06/07 06:52:47;;;;;;;0.75;0.68;;;24.50;89.70;;;;;;5074886;28;20542;-68
2022/06/07 06:55:12;;;;;;;0.88;0.88;;;24.00;90.90;;;;;;5074773;28;20219;-67
2022/06/07 06:57:39;;;;;;;1.00;0.88;;;23.90;91.60;;;;;;5073494;28;20265;-68
2022/06/07 07:00:05;;;;;;;1.98;1.10;;;24.30;91.50;;;;;;5073621;28;20635;-67
2022/06/07 07:02:31;;;;;;;1.30;1.00;;;24.20;90.80;;;;;;5074954;28;20187;-68
2022/06/07 07:04:56;;;;;;;1.15;0.88;;;24.00;91.30;;;;;;5074970;28;20180;-67
2022/06/07 07:07:22;;;;;;;1.35;1.20;;;23.90;91.90;;;;;;5074511;28;20322;-67
2022/06/07 07:09:49;;;;;;;0.98;0.90;;;24.00;92.00;;;;;;5073876;28;20173;-67
2022/06/07 07:12:16;;;;;;;0.98;0.90;;;24.30;91.50;;;;;;5074699;28;20192;-68
2022/06/07 07:14:41;;;;;;;0.90;0.80;;;24.60;91.00;;;;;;5074741;28;20172;-67
2022/06/07 07:17:07;;;;;;;1.33;1.02;;;24.40;90.80;;;;;;5074192;28;20239;-68
2022/06/07 07:19:32;;;;;;;1.15;1.00;;;24.00;90.50;;;;;;5074718;28;20228;-67
2022/06/07 07:21:58;;;;;;;1.25;1.00;;;23.50;91.00;;;;;;5074224;28;20212;-67
2022/06/07 07:24:24;;;;;;;3.75;1.65;;;22.90;91.30;;;;;;5074561;28;20181;-67
2022/06/07 07:26:51;;;;;;;2.20;1.33;;;22.70;92.30;;;;;;5074214;28;20173;-68
2022/06/07 07:29:18;;;;;;;0.80;0.80;;;22.60;92.90;;;;;;5074499;28;20201;-68
2022/06/07 07:31:45;;;;;;;4.05;1.13;;;22.70;93.40;;;;;;5074136;28;20185;-67
2022/06/07 07:34:14;;;;;;;3.15;1.40;;;23.30;92.50;;;;;;5074099;28;20468;-67
2022/06/07 07:36:49;;;;;;;4.35;3.08;;;23.40;92.00;;;;;;5073937;28;20220;-68
2022/06/07 07:39:15;;;;;;;1.80;1.00;;;23.60;92.30;;;;;;5073663;28;20225;-68
2022/06/07 07:41:42;;;;;;;1.98;0.90;;;23.50;92.30;;;;;;5074301;28;20180;-68
2022/06/07 07:44:11;;;;;;;2.22;0.90;;;23.50;92.20;;;;;;5074140;28;20172;-68
2022/06/07 07:46:38;;;;;;;0.85;0.85;;;23.50;92.10;;;;;;5074247;28;20638;-68
2022/06/07 07:49:05;;;;;;;2.75;1.05;;;23.30;91.70;;;;;;5072776;28;20212;-68
2022/06/07 07:51:34;;;;;;;1.63;1.00;;;22.80;92.20;;;;;;5074146;28;20636;-69
2022/06/07 07:54:02;;;;;;;2.60;1.38;;;22.20;92.80;;;;;;5071827;28;20219;-66
2022/06/07 07:56:27;;;;;;;1.58;0.90;;;22.10;94.10;;;;;;5065628;28;20213;-68
2022/06/07 07:58:55;;;;;;;1.38;1.00;;;22.70;94.30;;;;;;5054456;28;20180;-67
2022/06/07 08:01:24;;;;;;;1.30;1.00;;;23.10;93.70;;;;;;5068811;28;20197;-68
2022/06/07 08:03:51;;;;;;;1.02;0.80;;;23.40;93.40;;;;;;5073808;28;20177;-68
2022/06/07 08:06:18;;;;;;;3.80;2.75;;;24.00;93.30;;;;;;5073476;28;20292;-68
2022/06/07 08:08:49;;;;;;;1.05;0.88;;;24.60;91.60;;;;;;5069351;28;20219;-66
2022/06/07 08:11:18;;;;;;;1.08;1.00;;;25.00;90.60;;;;;;5073224;28;20176;-68
2022/06/07 08:13:43;;;;;;;1.30;1.00;;;25.70;88.50;;;;;;5072574;28;20227;-68
2022/06/07 08:16:09;;;;;;;1.38;1.10;;;26.20;85.20;;;;;;5062183;28;20220;-68
2022/06/07 08:18:36;;;;;;;1.33;1.20;;;26.30;84.10;;;;;;5073390;28;20253;-69
2022/06/07 08:21:06;;;;;;;1.30;0.75;;;26.60;82.70;;;;;;5072148;28;20634;-68
2022/06/07 08:23:32;;;;;;;1.02;0.93;;;26.50;81.90;;;;;;5073104;28;20504;-68
2022/06/07 08:26:00;;;;;;;1.02;0.93;;;26.40;81.50;;;;;;5073179;28;20177;-68
2022/06/07 08:28:26;;;;;;;0.90;0.88;;;26.60;81.30;;;;;;5073334;28;20165;-69
2022/06/07 08:30:52;;;;;;;1.27;0.90;;;26.30;81.20;;;;;;5073281;28;20181;-67
2022/06/07 08:38:54;;;;;;;1.98;0.95;;;26.00;79.40;;;;;;5057305;28;20217;-67
2022/06/07 08:41:29;;;;;;;3.47;1.23;;;26.30;78.80;;;;;;5073026;28;20180;-68
2022/06/07 08:44:03;;;;;;;2.35;0.70;;;26.60;79.60;;;;;;5072754;28;20190;-67
2022/06/07 08:46:33;;;;;;;1.80;0.70;;;26.90;75.30;;;;;;5072261;28;20172;-67
2022/06/07 08:48:59;;;;;;;1.27;1.05;;;27.10;76.00;;;;;;5071150;28;20176;-67
2022/06/07 08:51:29;;;;;;;0.85;0.77;;;27.40;76.40;;;;;;5070074;28;20661;-68
2022/06/07 08:54:00;;;;;;;3.22;1.10;;;27.60;75.20;;;;;;5072791;28;20169;-67
2022/06/07 08:56:33;;;;;;;2.80;0.90;;;27.80;74.90;;;;;;5072428;28;20361;-68
2022/06/07 08:59:09;;;;;;;1.23;0.93;;;27.30;72.50;;;;;;5072837;28;20176;-68
2022/06/07 09:02:07;;;;;;;2.65;0.73;;;26.70;73.80;;;;;;5072813;28;20520;-68
2022/06/07 09:04:36;;;;;;;1.30;0.73;;;26.20;73.00;;;;;;5072861;28;20183;-68
2022/06/07 09:07:05;;;;;;;2.60;0.70;;;25.90;74.00;;;;;;5072611;28;20192;-68
2022/06/07 09:12:28;;;;;;;0.88;0.80;;;25.90;75.90;;;;;;5072869;28;20183;-69
2022/06/07 09:15:03;;;;;;;0.70;0.70;;;26.20;73.40;;;;;;5072652;28;20189;-68
2022/06/07 09:17:33;;;;;;;1.33;0.80;;;26.20;74.10;;;;;;5072575;28;20202;-68
2022/06/07 09:19:59;;;;;;;2.47;0.80;;;26.10;73.30;;;;;;5072392;28;20232;-67
2022/06/07 09:22:38;;;;;;;0.80;0.80;;;25.60;75.30;;;;;;5072607;28;20180;-68
2022/06/07 09:25:16;;;;;;;1.52;1.17;;;25.60;76.60;;;;;;5072213;28;20172;-68
2022/06/07 09:27:45;;;;;;;1.45;0.95;;;25.30;75.60;;;;;;5072305;28;20659;-68
2022/06/07 09:30:16;;;;;;;2.25;1.00;;;25.20;76.50;;;;;;5071985;28;20255;-69
2022/06/07 09:32:51;;;;;;;0.90;0.90;;;24.90;77.30;;;;;;5067201;28;20509;-68
2022/06/07 09:35:21;;;;;;;1.35;1.10;;;24.90;77.50;;;;;;5071413;28;20240;-68
2022/06/07 09:37:50;;;;;;;1.35;0.68;;;25.00;78.80;;;;;;5071305;28;20230;-68
2022/06/07 09:40:27;;;;;;;0.82;0.82;;;25.30;78.60;;;;;;5072172;28;20164;-68
2022/06/07 09:43:04;;;;;;;1.45;1.10;;;25.90;77.00;;;;;;5071945;28;20575;-67
2022/06/07 09:45:35;;;;;;;0.98;0.80;;;26.30;75.50;;;;;;5072061;28;20268;-68
2022/06/07 09:48:31;;;;;;;1.25;0.75;;;26.10;74.20;;;;;;5071996;28;20779;-68
2022/06/07 09:51:01;;;;;;;1.40;0.88;;;26.20;74.90;;;;;;5071499;28;20222;-68
2022/06/07 09:53:41;;;;;;;0.77;0.77;;;26.30;75.30;;;;;;5072282;28;20184;-68
2022/06/07 09:56:37;;;;;;;1.10;0.68;;;26.60;75.30;;;;;;5065714;28;20243;-68
2022/06/07 09:59:03;;;;;;;0.80;0.75;;;26.70;74.20;;;;;;5071735;28;20529;-68
2022/06/07 10:01:54;;;;;;;1.45;1.00;;;26.40;72.10;;;;;;5071720;28;20272;-67
2022/06/07 10:04:55;;;;;;;1.23;1.13;;;26.30;73.30;;;;;;5071753;28;20645;-68
2022/06/07 10:07:43;;;;;;;1.52;1.00;;;26.60;75.70;;;;;;5051976;28;20597;-68
2022/06/07 10:10:30;;;;;;;1.23;1.00;;;27.10;73.90;;;;;;5063903;28;20198;-68
2022/06/07 10:13:29;;;;;;;3.15;1.15;;;27.30;72.40;;;;;;5071633;28;20210;-68
2022/06/07 10:16:14;;;;;;;1.27;0.75;;;27.00;74.20;;;;;;5070494;28;20232;-68
2022/06/07 10:19:01;;;;;;;1.60;0.85;;;27.30;74.40;;;;;;5065386;28;20297;-68
2022/06/07 10:21:37;;;;;;;0.93;0.90;;;27.20;72.00;;;;;;5071797;28;20527;-68
2022/06/07 10:24:25;;;;;;;3.15;1.10;;;27.40;72.40;;;;;;5071197;28;20173;-68
2022/06/07 10:26:50;;;;;;;0.80;0.80;;;27.10;70.70;;;;;;5071483;28;20218;-68
2022/06/07 10:29:43;;;;;;;1.23;1.10;;;26.80;72.50;;;;;;5071484;28;20208;-68
2022/06/07 10:32:17;;;;;;;0.88;0.80;;;26.60;73.30;;;;;;5071422;28;20534;-68
2022/06/07 10:34:46;;;;;;;1.27;0.98;;;25.90;73.90;;;;;;5071292;28;20208;-68
2022/06/07 10:37:18;;;;;;;0.82;0.82;;;25.70;76.30;;;;;;5071524;28;20633;-68
2022/06/07 10:39:56;;;;;;;1.25;0.98;;;25.90;78.40;;;;;;5071297;28;20188;-68
2022/06/07 10:43:06;;;;;;;1.08;0.80;;;25.90;73.60;;;;;;5071835;28;20188;-68
2022/06/07 10:45:37;;;;;;;3.53;0.85;;;26.10;73.20;;;;;;5069737;28;20189;-68
2022/06/07 10:48:06;;;;;;;2.05;1.10;;;26.00;73.50;;;;;;5054892;28;20277;-67
2022/06/07 10:50:37;;;;;;;1.50;1.25;;;25.60;74.40;;;;;;5073036;28;20185;-68
2022/06/07 10:53:10;;;;;;;1.92;0.82;;;25.60;75.40;;;;;;5075036;28;20224;-67
2022/06/07 10:55:45;;;;;;;0.90;0.90;;;25.50;76.30;;;;;;5074739;28;20698;-67
2022/06/07 10:58:27;;;;;;;0.93;0.85;;;25.80;74.80;;;;;;5075126;28;20235;-67
2022/06/07 11:01:07;;;;;;;1.75;1.10;;;26.10;75.30;;;;;;5074880;28;20550;-67
2022/06/07 11:03:54;;;;;;;3.65;0.73;;;26.50;74.20;;;;;;5070305;28;20172;-68
2022/06/07 11:09:33;;;;;;;1.05;0.90;;;26.90;73.90;;;;;;5074822;28;20191;-69
2022/06/07 11:12:36;;;;;;;1.10;1.00;;;27.30;72.70;;;;;;5074795;28;20185;-69
2022/06/07 11:15:18;;;;;;;1.08;0.60;;;27.60;72.10;;;;;;5069438;28;20246;-68
2022/06/07 11:17:49;;;;;;;1.77;0.85;;;27.30;69.40;;;;;;5074470;28;20201;-68
2022/06/07 11:20:28;;;;;;;1.98;0.70;;;27.10;68.60;;;;;;5074331;28;20189;-68
2022/06/07 11:22:56;;;;;;;3.38;1.10;;;26.90;68.90;;;;;;5074124;28;20226;-67
2022/06/07 11:25:33;;;;;;;0.80;0.68;;;26.50;70.80;;;;;;5074404;28;20181;-68
2022/06/07 11:28:15;;;;;;;0.88;0.80;;;26.50;70.70;;;;;;5074686;28;20616;-68
2022/06/07 11:30:44;;;;;;;0.88;0.77;;;26.80;71.90;;;;;;5074580;28;20196;-68
2022/06/07 11:33:28;;;;;;;0.77;0.77;;;27.00;69.50;;;;;;5074279;28;20177;-67
2022/06/07 11:36:12;;;;;;;1.20;0.73;;;27.40;68.40;;;;;;5074025;28;20205;-67
2022/06/07 11:39:03;;;;;;;1.40;0.82;;;27.50;68.30;;;;;;5074265;28;20179;-69
2022/06/07 11:41:37;;;;;;;0.82;0.75;;;27.40;68.80;;;;;;5062342;28;20314;-68
2022/06/07 11:44:11;;;;;;;1.10;1.00;;;27.30;69.70;;;;;;5069779;28;20336;-68
2022/06/07 11:46:52;;;;;;;0.80;0.80;;;27.30;69.90;;;;;;5054249;28;20188;-69
2022/06/07 11:49:17;;;;;;;0.90;0.70;;;26.90;66.80;;;;;;5062505;28;20218;-69
2022/06/07 11:52:03;;;;;;;1.90;1.00;;;26.50;70.40;;;;;;5073784;28;20172;-67
2022/06/07 11:54:48;;;;;;;2.42;0.98;;;26.40;69.00;;;;;;5074182;28;20524;-67
2022/06/07 11:57:19;;;;;;;2.72;1.42;;;26.10;71.50;;;;;;5073349;28;20541;-69
2022/06/07 11:59:48;;;;;;;0.90;0.90;;;25.60;74.50;;;;;;5073806;28;20200;-68
2022/06/07 12:02:16;;;;;;;3.13;1.13;;;25.40;75.70;;;;;;5073769;28;20758;-67
2022/06/07 12:04:43;;;;;;;1.25;0.93;;;25.10;75.50;;;;;;5073562;28;20177;-68
2022/06/07 12:07:27;;;;;;;0.60;0.60;;;25.20;76.20;;;;;;5073274;28;20192;-68
2022/06/07 12:09:58;;;;;;;1.23;0.68;;;25.30;75.20;;;;;;5073721;28;20180;-67
2022/06/07 12:12:34;;;;;;;2.65;1.30;;;25.30;74.00;;;;;;5073288;28;20271;-67
2022/06/07 12:15:25;;;;;;;1.27;1.00;;;25.30;74.30;;;;;;5072059;28;20177;-68
2022/06/07 12:18:03;;;;;;;3.20;0.70;;;25.30;75.40;;;;;;5056386;28;20653;-67
2022/06/07 12:20:33;;;;;;;2.15;0.93;;;25.30;75.20;;;;;;5059935;28;20223;-68
2022/06/07 12:23:10;;;;;;;0.73;0.73;;;25.50;76.60;;;;;;5072108;28;20614;-67
2022/06/07 12:25:36;;;;;;;0.70;0.70;;;25.70;74.20;;;;;;5062515;28;20586;-68
2022/06/07 12:28:04;;;;;;;1.45;1.00;;;25.80;73.80;;;;;;5072944;28;20191;-67
2022/06/07 12:30:33;;;;;;;1.60;0.90;;;25.80;73.40;;;;;;5072916;28;20184;-68
2022/06/07 12:33:23;;;;;;;2.50;0.88;;;25.90;74.00;;;;;;5072223;28;20238;-67
2022/06/07 12:36:02;;;;;;;1.35;0.90;;;25.90;72.70;;;;;;5072850;28;20348;-68
2022/06/07 12:38:30;;;;;;;0.63;0.63;;;25.90;72.60;;;;;;5073174;28;20275;-67
2022/06/07 12:41:04;;;;;;;2.15;1.20;;;25.90;72.70;;;;;;5072717;28;20631;-68
2022/06/07 12:43:45;;;;;;;1.63;0.85;;;25.90;74.60;;;;;;5072595;28;20184;-68
2022/06/07 12:46:25;;;;;;;0.98;0.75;;;25.60;73.70;;;;;;5072849;28;20176;-68
2022/06/07 12:48:52;;;;;;;1.80;0.98;;;25.60;74.00;;;;;;5072373;28;20180;-67
2022/06/07 12:51:24;;;;;;;2.40;0.90;;;25.80;75.20;;;;;;5072511;28;20185;-68
2022/06/07 12:53:58;;;;;;;0.95;0.70;;;25.90;72.50;;;;;;5073087;28;20262;-69
2022/06/07 12:56:28;;;;;;;0.77;0.77;;;26.00;70.70;;;;;;5072536;28;20297;-69
2022/06/07 12:58:56;;;;;;;0.60;0.60;;;26.10;70.40;;;;;;5072430;28;20225;-68
2022/06/07 13:01:31;;;;;;;1.05;0.70;;;26.10;68.80;;;;;;5072485;28;20631;-69
2022/06/07 13:04:02;;;;;;;1.20;0.70;;;25.90;68.20;;;;;;5072397;28;20173;-69
2022/06/07 13:06:28;;;;;;;0.80;0.80;;;25.90;70.40;;;;;;5071334;28;20532;-69
2022/06/07 13:09:03;;;;;;;0.88;0.60;;;26.00;70.30;;;;;;5071573;28;20181;-68
2022/06/07 13:11:34;;;;;;;0.95;0.40;;;26.10;68.10;;;;;;5072312;28;20176;-68
2022/06/07 13:14:00;;;;;;;1.48;0.73;;;26.30;66.60;;;;;;5072172;28;20207;-68
2022/06/07 13:16:39;;;;;;;0.55;0.55;;;26.50;70.00;;;;;;5071829;28;20212;-69
2022/06/07 13:19:14;;;;;;;0.95;0.93;;;26.60;69.40;;;;;;5072087;28;20619;-68
2022/06/07 13:21:48;;;;;;;1.10;0.68;;;26.60;70.10;;;;;;5072360;28;20453;-69
2022/06/07 13:24:42;;;;;;;2.40;0.95;;;26.80;70.30;;;;;;5071808;28;20259;-68